福岡空港の過去48時間の天気

福岡空港 (Fukuoka)

現在時刻: 9/19 07:01 JST (9/18 22:01 UTC) 以下の時間は現地時間です。

過去48時間のMETAR気象情報
時間 風向 風速(m/s) 視程 気温(℃) 湿度(%) 気圧(hPa) 天気現象
19 06:30 静穏 0 10km以上 20 94 1014
19 06:00 南東 2 10km以上 20 100 1013
19 05:30 南南東 1 10km以上 21 94 1013
19 05:00 不定 1 10km以上 20 94 1013
19 04:30 不定 1 10km以上 20 94 1013
RJFF 182130Z 00000KT 9999 FEW015 SCT030 20/19 Q1014 NOSIG RMK 1CU015 3CU030 A2994
RJFF 182100Z 14003KT 9999 FEW015 SCT025 BKN030 20/20 Q1013 NOSIG RMK 1CU015 3CU025 5CU030 A2994
RJFF 182030Z AUTO 15002KT 9999 BKN033 21/20 Q1013 NOSIG RMK A2993
RJFF 182000Z AUTO VRB02KT 9999 FEW030 20/19 Q1013 NOSIG RMK A2993
RJFF 181930Z AUTO VRB02KT 9999 FEW023 20/19 Q1013 NOSIG RMK A2992